createdAt,value
2022-10-15T00:01:54.453Z,6.30
2022-10-15T00:04:23.353Z,7.13
2022-10-15T00:06:52.022Z,7.73
2022-10-15T00:09:21.058Z,6.93
2022-10-15T00:11:51.339Z,6.43
2022-10-15T00:14:20.406Z,6.50
2022-10-15T00:16:49.204Z,6.27
2022-10-15T00:19:18.796Z,6.70
2022-10-15T00:21:47.666Z,7.00
2022-10-15T00:24:16.542Z,6.87
2022-10-15T00:26:45.377Z,6.63
2022-10-15T00:29:15.565Z,6.33
2022-10-15T00:31:45.443Z,6.60
2022-10-15T00:34:15.560Z,6.80
2022-10-15T00:36:44.436Z,6.50
2022-10-15T00:39:13.615Z,6.70
2022-10-15T00:41:44.427Z,6.90
2022-10-15T00:44:59.095Z,6.67
2022-10-15T00:47:36.246Z,6.30
2022-10-15T00:50:08.211Z,6.07
2022-10-15T00:52:44.475Z,6.47
2022-10-15T00:55:17.260Z,6.97
2022-10-15T00:57:50.508Z,6.10
2022-10-15T01:00:19.938Z,6.43
2022-10-15T01:02:50.357Z,5.90
2022-10-15T01:05:20.350Z,6.30
2022-10-15T01:07:49.265Z,6.33
2022-10-15T01:10:19.423Z,6.40
2022-10-15T01:12:59.563Z,6.27
2022-10-15T01:15:34.799Z,5.90
2022-10-15T01:18:10.953Z,5.90
2022-10-15T01:20:52.236Z,6.30
2022-10-15T01:23:46.283Z,5.30
2022-10-15T01:26:48.033Z,5.80
2022-10-15T01:29:33.938Z,6.10
2022-10-15T01:32:12.525Z,5.37
2022-10-15T01:34:48.614Z,5.30
2022-10-15T01:37:23.025Z,5.17
2022-10-15T01:39:58.531Z,5.40
2022-10-15T01:42:32.820Z,5.40
2022-10-15T01:45:06.960Z,5.47
2022-10-15T01:47:50.567Z,5.17
2022-10-15T01:50:24.416Z,5.00
2022-10-15T01:52:55.723Z,5.10
2022-10-15T01:55:27.567Z,4.87
2022-10-15T01:57:59.722Z,4.80
2022-10-15T02:00:28.600Z,5.10
2022-10-15T02:03:02.125Z,4.73
2022-10-15T02:05:38.192Z,4.83
2022-10-15T02:08:18.877Z,4.93
2022-10-15T02:10:55.157Z,4.70
2022-10-15T02:13:27.844Z,5.37
2022-10-15T02:16:06.236Z,4.77
2022-10-15T02:18:41.980Z,4.50
2022-10-15T02:21:15.655Z,4.80
2022-10-15T02:23:52.621Z,5.10
2022-10-15T02:26:26.689Z,4.63
2022-10-15T02:28:59.212Z,5.33
2022-10-15T02:31:30.912Z,4.87
2022-10-15T02:34:05.883Z,4.80
2022-10-15T02:36:35.275Z,4.77
2022-10-15T02:39:10.444Z,4.63
2022-10-15T02:41:41.379Z,4.93
2022-10-15T02:44:14.202Z,4.67
2022-10-15T02:46:43.289Z,4.67
2022-10-15T02:49:14.819Z,5.00
2022-10-15T02:51:43.852Z,4.33
2022-10-15T02:54:14.956Z,5.17
2022-10-15T02:56:44.201Z,5.10
2022-10-15T02:59:13.731Z,4.70
2022-10-15T03:01:42.843Z,4.67
2022-10-15T03:04:13.834Z,4.50
2022-10-15T03:06:42.850Z,4.73
2022-10-15T03:09:12.198Z,4.90
2022-10-15T03:11:41.175Z,4.50
2022-10-15T03:14:10.395Z,4.77
2022-10-15T03:16:41.019Z,4.40
2022-10-15T03:19:11.766Z,4.20
2022-10-15T03:21:43.095Z,4.40
2022-10-15T03:24:16.578Z,4.63
2022-10-15T03:26:45.853Z,4.43
2022-10-15T03:29:14.742Z,4.30
2022-10-15T03:31:48.983Z,4.77
2022-10-15T03:34:18.419Z,4.50
2022-10-15T03:36:49.834Z,4.77
2022-10-15T03:39:19.759Z,4.50
2022-10-15T03:41:48.895Z,4.80
2022-10-15T03:44:24.824Z,4.47
2022-10-15T03:47:05.268Z,4.60
2022-10-15T03:49:43.571Z,5.03
2022-10-15T03:52:14.139Z,4.53
2022-10-15T03:54:44.165Z,4.50
2022-10-15T03:57:14.915Z,5.43
2022-10-15T03:59:53.437Z,4.70
2022-10-15T04:02:25.664Z,4.43
2022-10-15T04:04:56.340Z,4.70
2022-10-15T04:07:27.196Z,4.30
2022-10-15T04:09:56.166Z,4.47
2022-10-15T04:12:29.459Z,4.40
2022-10-15T04:14:58.632Z,4.17
2022-10-15T04:17:27.858Z,4.27
2022-10-15T04:19:56.742Z,4.00
2022-10-15T04:22:27.303Z,4.20
2022-10-15T04:25:01.128Z,3.93
2022-10-15T04:27:31.996Z,3.87
2022-10-15T04:30:09.087Z,3.97
2022-10-15T04:32:41.407Z,4.13
2022-10-15T04:35:10.928Z,4.13
2022-10-15T04:38:00.456Z,4.07
2022-10-15T04:40:36.542Z,4.07
2022-10-15T04:43:05.899Z,4.13
2022-10-15T04:45:35.076Z,4.13
2022-10-15T04:48:04.157Z,3.90
2022-10-15T04:50:33.171Z,4.00
2022-10-15T04:53:31.699Z,3.70
2022-10-15T04:56:05.326Z,4.20
2022-10-15T04:58:36.119Z,3.80
2022-10-15T05:01:06.917Z,4.20
2022-10-15T05:03:50.500Z,3.70
2022-10-15T05:06:21.810Z,3.83
2022-10-15T05:08:57.199Z,3.80
2022-10-15T05:11:30.104Z,4.00
2022-10-15T05:14:00.613Z,4.07
2022-10-15T05:16:31.352Z,4.00
2022-10-15T05:19:04.237Z,4.10
2022-10-15T05:21:35.674Z,4.27
2022-10-15T05:24:10.458Z,4.43
2022-10-15T05:26:56.804Z,4.23
2022-10-15T05:29:26.038Z,4.33
2022-10-15T05:31:55.042Z,4.23
2022-10-15T05:34:30.425Z,3.90
2022-10-15T05:37:07.994Z,3.93
2022-10-15T05:39:38.395Z,4.67
2022-10-15T05:42:07.234Z,7.30
2022-10-15T05:44:43.320Z,20.10
2022-10-15T05:47:12.600Z,13.70
2022-10-15T05:49:43.181Z,5.27
2022-10-15T05:52:25.325Z,4.63
2022-10-15T05:55:14.496Z,4.50
2022-10-15T05:57:43.458Z,5.00
2022-10-15T06:00:14.199Z,4.90
2022-10-15T06:02:43.352Z,10.43
2022-10-15T06:05:13.297Z,5.27
2022-10-15T06:07:42.236Z,4.73
2022-10-15T06:10:12.702Z,4.60
2022-10-15T06:12:44.000Z,3.93
2022-10-15T06:15:12.848Z,4.10
2022-10-15T06:17:41.833Z,3.97
2022-10-15T06:20:12.529Z,3.70
2022-10-15T06:22:41.339Z,4.07
2022-10-15T06:25:11.448Z,3.67
2022-10-15T06:27:42.123Z,4.00
2022-10-15T06:30:12.099Z,4.53
2022-10-15T06:32:41.383Z,4.07
2022-10-15T06:35:10.612Z,5.03
2022-10-15T06:37:39.725Z,3.97
2022-10-15T06:40:11.568Z,3.90
2022-10-15T06:42:45.654Z,4.00
2022-10-15T06:45:16.997Z,5.60
2022-10-15T06:47:48.301Z,6.60
2022-10-15T06:50:17.171Z,7.17
2022-10-15T06:52:46.030Z,6.43
2022-10-15T06:55:15.230Z,5.50
2022-10-15T06:57:45.429Z,4.63
2022-10-15T07:00:18.313Z,4.07
2022-10-15T07:02:49.337Z,6.87
2022-10-15T07:05:18.986Z,12.63
2022-10-15T07:07:52.872Z,9.93
2022-10-15T07:10:23.170Z,8.23
2022-10-15T07:12:54.915Z,7.73
2022-10-15T07:15:24.394Z,6.57
2022-10-15T07:17:56.601Z,7.70
2022-10-15T07:20:25.727Z,6.03
2022-10-15T07:22:58.092Z,5.53
2022-10-15T07:25:31.874Z,5.00
2022-10-15T07:28:02.439Z,4.77
2022-10-15T07:30:31.789Z,5.87
2022-10-15T07:33:01.013Z,8.93
2022-10-15T07:35:30.934Z,29.50
2022-10-15T07:38:02.384Z,13.13
2022-10-15T07:40:31.691Z,10.97
2022-10-15T07:43:02.398Z,6.70
2022-10-15T07:45:33.484Z,4.77
2022-10-15T07:48:02.567Z,4.80
2022-10-15T07:50:35.443Z,4.40
2022-10-15T07:53:09.421Z,4.20
2022-10-15T07:55:39.247Z,3.93
2022-10-15T07:58:09.762Z,3.93
2022-10-15T08:00:38.912Z,3.83
2022-10-15T08:03:08.283Z,3.57
2022-10-15T08:05:37.289Z,3.90
2022-10-15T08:08:06.694Z,3.67
2022-10-15T08:10:37.518Z,3.30
2022-10-15T08:13:06.729Z,3.70
2022-10-15T08:15:40.607Z,3.67
2022-10-15T08:18:09.964Z,3.80
2022-10-15T08:20:38.983Z,3.40
2022-10-15T08:23:16.207Z,3.50
2022-10-15T08:25:45.591Z,3.40
2022-10-15T08:28:16.668Z,3.37
2022-10-15T08:30:46.984Z,3.53
2022-10-15T08:33:16.108Z,3.40
2022-10-15T08:35:45.304Z,3.37
2022-10-15T08:38:17.512Z,3.30
2022-10-15T08:40:50.543Z,3.80
2022-10-15T08:43:24.364Z,3.60
2022-10-15T08:45:58.819Z,3.70
2022-10-15T08:48:32.079Z,3.77
2022-10-15T08:51:04.972Z,3.40
2022-10-15T08:53:39.902Z,3.40
2022-10-15T08:56:16.925Z,3.50
2022-10-15T08:58:52.742Z,3.50
2022-10-15T09:01:30.568Z,3.30
2022-10-15T09:04:15.783Z,3.43
2022-10-15T09:06:45.451Z,3.40
2022-10-15T09:09:21.623Z,3.40
2022-10-15T09:12:00.294Z,3.67
2022-10-15T09:14:34.720Z,3.53
2022-10-15T09:17:15.295Z,3.60
2022-10-15T09:19:47.319Z,3.67
2022-10-15T09:22:20.023Z,3.50
2022-10-15T09:24:49.163Z,3.23
2022-10-15T09:27:31.443Z,3.03
2022-10-15T09:30:06.900Z,3.40
2022-10-15T09:32:42.424Z,3.57
2022-10-15T09:35:18.059Z,3.40
2022-10-15T09:37:53.894Z,3.33
2022-10-15T09:40:37.094Z,3.40
2022-10-15T09:43:06.931Z,3.17
2022-10-15T09:45:35.843Z,3.40
2022-10-15T09:48:16.400Z,3.57
2022-10-15T09:50:55.053Z,3.93
2022-10-15T09:53:34.121Z,3.43
2022-10-15T09:56:09.182Z,4.63
2022-10-15T09:58:50.823Z,3.40
2022-10-15T10:01:22.213Z,3.17
2022-10-15T10:04:09.887Z,3.57
2022-10-15T10:06:46.206Z,3.50
2022-10-15T10:09:20.220Z,3.40
2022-10-15T10:11:52.819Z,3.43
2022-10-15T10:14:28.612Z,3.40
2022-10-15T10:17:17.310Z,3.40
2022-10-15T10:20:05.554Z,3.20
2022-10-15T10:22:46.573Z,3.33
2022-10-15T10:25:30.481Z,3.20
2022-10-15T10:28:05.472Z,3.47
2022-10-15T10:30:37.405Z,3.43
2022-10-15T10:33:07.333Z,3.67
2022-10-15T10:35:47.389Z,3.23
2022-10-15T10:38:22.215Z,3.60
2022-10-15T10:40:52.452Z,2.93
2022-10-15T10:43:26.370Z,3.00
2022-10-15T10:45:57.756Z,2.87
2022-10-15T10:48:29.447Z,3.20
2022-10-15T10:51:10.511Z,2.50
2022-10-15T10:53:52.911Z,2.67
2022-10-15T10:56:26.160Z,2.70
2022-10-15T10:58:58.982Z,2.50
2022-10-15T11:01:29.003Z,2.40
2022-10-15T11:03:57.995Z,2.43
2022-10-15T11:06:57.070Z,2.57
2022-10-15T11:09:52.314Z,2.47
2022-10-15T11:12:41.007Z,2.70
2022-10-15T11:15:25.215Z,2.20
2022-10-15T11:18:07.531Z,2.30
2022-10-15T11:20:58.681Z,2.43
2022-10-15T11:23:47.854Z,2.10
2022-10-15T11:26:37.597Z,2.73
2022-10-15T11:29:34.839Z,2.30
2022-10-15T11:32:17.230Z,2.10
2022-10-15T11:35:05.439Z,2.20
2022-10-15T11:37:45.927Z,2.97
2022-10-15T11:40:26.012Z,4.60
2022-10-15T11:42:58.263Z,2.30
2022-10-15T11:45:54.178Z,3.47
2022-10-15T11:48:36.690Z,2.10
2022-10-15T11:51:13.181Z,2.10
2022-10-15T11:54:13.473Z,2.10
2022-10-15T11:56:47.709Z,2.00
2022-10-15T11:59:26.528Z,3.00
2022-10-15T12:01:59.083Z,2.17
2022-10-15T12:04:34.815Z,2.00
2022-10-15T12:07:07.734Z,2.07
2022-10-15T12:09:41.895Z,2.00
2022-10-15T12:12:20.126Z,1.80
2022-10-15T12:14:57.702Z,1.50
2022-10-15T12:17:37.510Z,1.90
2022-10-15T12:20:13.070Z,2.03
2022-10-15T12:22:55.903Z,3.20
2022-10-15T12:25:44.811Z,2.10
2022-10-15T12:28:21.720Z,2.10
2022-10-15T12:30:56.899Z,2.00
2022-10-15T12:33:36.064Z,2.10
2022-10-15T12:36:09.851Z,2.10
2022-10-15T12:38:41.702Z,2.40
2022-10-15T12:41:12.416Z,2.60
2022-10-15T12:43:46.709Z,3.10
2022-10-15T12:46:15.796Z,2.50
2022-10-15T12:48:46.345Z,2.50
2022-10-15T12:51:40.111Z,2.33
2022-10-15T12:54:35.185Z,2.40
2022-10-15T12:57:25.881Z,2.60
2022-10-15T13:00:00.340Z,2.80
2022-10-15T13:05:28.227Z,2.77
2022-10-15T13:07:59.582Z,2.60
2022-10-15T13:10:30.820Z,3.67
2022-10-15T13:13:02.558Z,2.80
2022-10-15T13:15:35.213Z,4.17
2022-10-15T13:18:09.482Z,3.20
2022-10-15T13:20:40.885Z,2.73
2022-10-15T13:23:29.400Z,5.53
2022-10-15T13:26:19.458Z,2.90
2022-10-15T13:28:49.236Z,2.90
2022-10-15T13:31:27.471Z,3.17
2022-10-15T13:34:02.345Z,4.63
2022-10-15T13:36:33.420Z,3.57
2022-10-15T13:39:06.434Z,3.23
2022-10-15T13:41:37.721Z,2.90
2022-10-15T13:44:06.730Z,3.00
2022-10-15T13:46:38.932Z,3.13
2022-10-15T13:49:13.048Z,3.00
2022-10-15T13:51:44.484Z,3.87
2022-10-15T13:54:18.294Z,4.43
2022-10-15T13:56:53.903Z,2.80
2022-10-15T13:59:24.098Z,2.73
2022-10-15T14:02:00.960Z,3.67
2022-10-15T14:04:31.289Z,2.90
2022-10-15T14:07:04.584Z,2.97
2022-10-15T14:09:35.374Z,3.17
2022-10-15T14:12:07.463Z,2.77
2022-10-15T14:14:39.240Z,2.93
2022-10-15T14:17:13.182Z,3.13
2022-10-15T14:19:51.480Z,3.20
2022-10-15T14:22:31.698Z,3.90
2022-10-15T14:25:01.191Z,3.03
2022-10-15T14:27:30.766Z,3.50
2022-10-15T14:30:02.611Z,2.83
2022-10-15T14:32:46.885Z,3.00
2022-10-15T14:35:25.644Z,3.17
2022-10-15T14:38:01.998Z,2.90
2022-10-15T14:40:31.722Z,3.57
2022-10-15T14:43:05.937Z,3.20
2022-10-15T14:45:55.758Z,3.30
2022-10-15T14:48:28.050Z,3.27
2022-10-15T14:51:00.571Z,3.17
2022-10-15T14:53:32.609Z,3.50
2022-10-15T14:56:05.024Z,7.87
2022-10-15T14:58:34.117Z,3.40
2022-10-15T15:01:05.472Z,3.90
2022-10-15T15:03:42.645Z,4.00
2022-10-15T15:06:11.828Z,4.53
2022-10-15T15:08:40.768Z,3.03
2022-10-15T15:11:14.274Z,3.40
2022-10-15T15:13:45.235Z,3.10
2022-10-15T15:16:15.663Z,2.93
2022-10-15T15:18:48.288Z,2.83
2022-10-15T15:21:21.650Z,4.33
2022-10-15T15:23:50.631Z,3.30
2022-10-15T15:26:19.331Z,3.83
2022-10-15T15:28:48.243Z,2.80
2022-10-15T15:31:19.163Z,3.07
2022-10-15T15:33:49.381Z,3.00
2022-10-15T15:36:23.264Z,3.17
2022-10-15T15:38:53.505Z,3.00
2022-10-15T15:41:24.811Z,3.00
2022-10-15T15:43:54.933Z,3.53
2022-10-15T15:46:24.097Z,3.57
2022-10-15T15:48:54.495Z,3.80
2022-10-15T15:51:26.585Z,3.60
2022-10-15T15:53:55.879Z,4.43
2022-10-15T15:56:25.448Z,3.90
2022-10-15T15:58:54.426Z,3.57
2022-10-15T16:01:23.477Z,3.30
2022-10-15T16:03:53.905Z,3.20
2022-10-15T16:06:22.991Z,3.20
2022-10-15T16:08:53.281Z,3.17
2022-10-15T16:11:22.415Z,2.90
2022-10-15T16:13:51.227Z,3.20
2022-10-15T16:16:20.110Z,3.50
2022-10-15T16:18:49.119Z,3.30
2022-10-15T16:21:23.805Z,3.50
2022-10-15T16:23:52.971Z,3.60
2022-10-15T16:26:22.278Z,3.27
2022-10-15T16:28:51.311Z,3.50
2022-10-15T16:31:25.330Z,3.63
2022-10-15T16:33:57.208Z,3.57
2022-10-15T16:36:27.692Z,3.20
2022-10-15T16:38:56.875Z,3.10
2022-10-15T16:41:25.715Z,3.30
2022-10-15T16:43:55.267Z,3.40
2022-10-15T16:46:24.295Z,3.27
2022-10-15T16:48:55.137Z,3.73
2022-10-15T16:51:25.298Z,3.40
2022-10-15T16:53:56.062Z,3.50
2022-10-15T16:56:26.922Z,3.50
2022-10-15T16:58:57.092Z,3.70
2022-10-15T17:01:28.687Z,3.30
2022-10-15T17:03:59.862Z,3.30
2022-10-15T17:06:31.446Z,3.20
2022-10-15T17:09:04.173Z,3.23
2022-10-15T17:11:35.827Z,3.30
2022-10-15T17:14:07.030Z,3.30
2022-10-15T17:16:39.059Z,3.40
2022-10-15T17:19:08.568Z,3.40
2022-10-15T17:21:39.633Z,3.60
2022-10-15T17:24:13.368Z,3.83
2022-10-15T17:26:43.618Z,3.77
2022-10-15T17:29:16.165Z,4.03
2022-10-15T17:31:45.140Z,3.53
2022-10-15T17:34:14.824Z,3.50
2022-10-15T17:36:47.151Z,3.90
2022-10-15T17:39:19.443Z,4.07
2022-10-15T17:41:48.531Z,3.77
2022-10-15T17:44:17.352Z,4.20
2022-10-15T17:46:46.393Z,4.07
2022-10-15T17:49:18.490Z,3.70
2022-10-15T17:51:48.361Z,3.80
2022-10-15T17:54:18.700Z,3.83
2022-10-15T17:56:48.554Z,3.60
2022-10-15T17:59:18.043Z,4.50
2022-10-15T18:02:02.473Z,4.30
2022-10-15T18:04:35.986Z,4.33
2022-10-15T18:07:05.004Z,4.10
2022-10-15T18:09:36.062Z,6.63
2022-10-15T18:12:05.543Z,4.20
2022-10-15T18:14:36.043Z,4.10
2022-10-15T18:17:05.879Z,3.90
2022-10-15T18:19:34.673Z,4.20
2022-10-15T18:22:03.776Z,5.00
2022-10-15T18:24:33.165Z,5.30
2022-10-15T18:27:07.791Z,4.70
2022-10-15T18:29:36.952Z,4.17
2022-10-15T18:32:05.957Z,4.37
2022-10-15T18:34:35.579Z,4.80
2022-10-15T18:37:04.391Z,4.73
2022-10-15T18:39:33.178Z,5.10
2022-10-15T18:42:03.708Z,5.40
2022-10-15T18:44:34.421Z,5.47
2022-10-15T18:47:03.153Z,5.20
2022-10-15T18:49:33.047Z,5.13
2022-10-15T18:52:10.657Z,4.53
2022-10-15T18:54:50.690Z,5.23
2022-10-15T18:57:19.454Z,4.40
2022-10-15T18:59:49.502Z,4.57
2022-10-15T19:02:18.314Z,4.60
2022-10-15T19:04:47.418Z,4.20
2022-10-15T19:07:16.512Z,3.53
2022-10-15T19:09:47.700Z,4.13
2022-10-15T19:12:19.225Z,5.27
2022-10-15T19:14:49.514Z,3.90
2022-10-15T19:17:18.220Z,3.83
2022-10-15T19:19:50.039Z,3.93
2022-10-15T19:22:19.400Z,4.10
2022-10-15T19:24:48.346Z,4.33
2022-10-15T19:27:17.096Z,3.80
2022-10-15T19:30:15.977Z,3.47
2022-10-15T19:32:47.192Z,3.40
2022-10-15T19:35:16.181Z,3.57
2022-10-15T19:37:45.740Z,4.10
2022-10-15T19:40:15.006Z,3.60
2022-10-15T19:42:44.135Z,3.63
2022-10-15T19:45:13.052Z,3.60
2022-10-15T19:47:43.346Z,3.43
2022-10-15T19:50:12.492Z,3.27
2022-10-15T19:52:41.713Z,3.67
2022-10-15T19:55:10.775Z,3.33
2022-10-15T19:57:39.534Z,3.80
2022-10-15T20:00:09.638Z,3.60
2022-10-15T20:02:43.014Z,3.67
2022-10-15T20:05:11.996Z,5.17
2022-10-15T20:07:40.887Z,3.60
2022-10-15T20:10:10.887Z,3.23
2022-10-15T20:12:40.121Z,3.90
2022-10-15T20:15:10.839Z,3.60
2022-10-15T20:17:40.108Z,3.80
2022-10-15T20:20:10.376Z,4.00
2022-10-15T20:22:39.112Z,3.67
2022-10-15T20:25:08.387Z,3.60
2022-10-15T20:27:37.402Z,4.00
2022-10-15T20:30:07.083Z,3.73
2022-10-15T20:32:36.986Z,3.67
2022-10-15T20:35:06.840Z,3.50
2022-10-15T20:37:37.115Z,4.40
2022-10-15T20:40:07.601Z,4.00
2022-10-15T20:42:37.705Z,4.10
2022-10-15T20:45:09.459Z,4.17
2022-10-15T20:47:42.098Z,4.50
2022-10-15T20:50:14.611Z,4.10
2022-10-15T20:52:45.257Z,4.10
2022-10-15T20:55:14.570Z,4.43
2022-10-15T20:57:43.525Z,4.83
2022-10-15T21:00:14.066Z,4.20
2022-10-15T21:02:43.338Z,4.30
2022-10-15T21:05:12.337Z,5.17
2022-10-15T21:07:41.112Z,4.07
2022-10-15T21:10:11.652Z,4.30
2022-10-15T21:12:40.874Z,4.10
2022-10-15T21:15:10.479Z,5.43
2022-10-15T21:17:40.922Z,4.17
2022-10-15T21:20:10.566Z,4.07
2022-10-15T21:22:39.573Z,3.47
2022-10-15T21:25:09.268Z,3.90
2022-10-15T21:27:39.558Z,3.70
2022-10-15T21:30:10.273Z,3.83
2022-10-15T21:32:39.391Z,3.90
2022-10-15T21:35:09.107Z,4.20
2022-10-15T21:37:38.939Z,3.63
2022-10-15T21:40:09.137Z,4.27
2022-10-15T21:42:40.169Z,4.30
2022-10-15T21:45:10.796Z,4.93
2022-10-15T21:47:39.875Z,4.03
2022-10-15T21:50:09.510Z,3.90
2022-10-15T21:52:38.474Z,4.33
2022-10-15T21:55:08.409Z,4.27
2022-10-15T21:57:38.749Z,3.80
2022-10-15T22:00:14.599Z,4.10
2022-10-15T22:02:50.521Z,5.03
2022-10-15T22:05:19.578Z,4.00
2022-10-15T22:07:48.638Z,3.80
2022-10-15T22:10:17.812Z,3.80
2022-10-15T22:12:53.683Z,3.93
2022-10-15T22:15:22.590Z,3.83
2022-10-15T22:17:51.378Z,4.20
2022-10-15T22:20:23.704Z,4.17
2022-10-15T22:22:55.131Z,4.47
2022-10-15T22:25:24.034Z,3.83
2022-10-15T22:27:54.171Z,4.20
2022-10-15T22:30:23.017Z,3.93
2022-10-15T22:32:52.163Z,4.13
2022-10-15T22:35:21.782Z,4.03
2022-10-15T22:37:51.523Z,5.20
2022-10-15T22:40:20.516Z,3.67
2022-10-15T22:42:49.260Z,3.90
2022-10-15T22:45:19.471Z,3.73
2022-10-15T22:47:48.507Z,4.00
2022-10-15T22:50:17.535Z,4.03
2022-10-15T22:52:46.263Z,3.90
2022-10-15T22:55:15.290Z,4.20
2022-10-15T22:57:45.062Z,3.70
2022-10-15T23:00:16.149Z,3.77
2022-10-15T23:02:47.316Z,3.83
2022-10-15T23:05:16.532Z,4.67
2022-10-15T23:07:45.531Z,4.13
2022-10-15T23:10:14.723Z,4.10
2022-10-15T23:12:43.794Z,4.03
2022-10-15T23:15:13.131Z,4.40
2022-10-15T23:17:42.076Z,4.17
2022-10-15T23:20:12.862Z,4.10
2022-10-15T23:22:41.958Z,3.83
2022-10-15T23:25:11.139Z,3.67
2022-10-15T23:27:39.878Z,4.27
2022-10-15T23:30:14.682Z,3.73
2022-10-15T23:32:52.808Z,4.27
2022-10-15T23:35:24.928Z,3.93
2022-10-15T23:37:53.948Z,5.10
2022-10-15T23:40:22.806Z,7.03
2022-10-15T23:42:51.634Z,5.00
2022-10-15T23:45:20.673Z,3.80
2022-10-15T23:47:49.832Z,4.17
2022-10-15T23:50:18.872Z,4.00
2022-10-15T23:52:49.503Z,5.43
2022-10-15T23:55:18.386Z,3.70
2022-10-15T23:57:47.103Z,3.87
